Time;durP1;ratioP1;P1;durP2;ratioP2;P2;SDS_P1;SDS_P2;PMS_P1;PMS_P2;Temp;Humidity;BMP_temperature;BMP_pressure;BME280_temperature;BME280_humidity;BME280_pressure;Samples;Min_cycle;Max_cycle;Signal;HPM_P1;HPM_P2
2023/07/06 00:01:25;;;;;;;;;;;;;;;;;;5153366;27;19922;-68
2023/07/06 00:03:51;;;;;;;;;;;;;;;;;;5152938;27;19937;-68
2023/07/06 00:09:47;;;;;;;;;;;;;;;;;;5112599;27;19916;-68
2023/07/06 00:12:13;;;;;;;;;;;;;;;;;;5110015;28;20341;-68
2023/07/06 00:14:39;;;;;;;;;;;;;;;;;;5111602;28;19912;-68
2023/07/06 00:18:49;;;;;;;;;;;;;;;;;;5091591;27;19923;-68
2023/07/06 00:21:15;;;;;;;;;;;;;;;;;;5091362;28;19954;-68
2023/07/06 00:27:40;;;;;;;;;;;;;;;;;;5153375;27;19911;-69
2023/07/06 00:30:15;;;;;;;;;;;;;;;;;;5152884;27;19918;-68
2023/07/06 00:32:41;;;;;;;;;;;;;;;;;;5152581;27;19907;-69
2023/07/06 00:35:10;;;;;;;;;;;;;;;;;;5153154;27;20271;-69
2023/07/06 00:37:37;;;;;;;;;;;;;;;;;;5152771;27;20439;-69
2023/07/06 00:40:08;;;;;;;;;;;;;;;;;;5152384;27;20274;-68
2023/07/06 00:42:59;;;;;;;;;;;;;;;;;;5091678;28;19922;-68
2023/07/06 00:45:25;;;;;;;;;;;;;;;;;;5090152;28;20011;-68
2023/07/06 00:47:51;;;;;;;;;;;;;;;;;;5090916;28;20022;-68
2023/07/06 00:50:17;;;;;;;;;;;;;;;;;;5091302;28;19991;-68
2023/07/06 00:52:43;;;;;;;;;;;;;;;;;;5091222;28;19950;-68
2023/07/06 00:55:09;;;;;;;;;;;;;;;;;;5090810;28;19912;-68
2023/07/06 00:57:35;;;;;;;;;;;;;;;;;;5091221;28;20007;-68
2023/07/06 01:02:19;;;;;;;;;;;;;;;;;;5111412;27;20276;-68
2023/07/06 01:04:45;;;;;;;;;;;;;;;;;;5110468;28;20007;-69
2023/07/06 01:07:11;;;;;;;;;;;;;;;;;;5111617;28;19994;-68
2023/07/06 01:09:39;;;;;;;;;;;;;;;;;;5111294;28;19947;-68
2023/07/06 01:12:05;;;;;;;;;;;;;;;;;;5111524;28;19939;-68
2023/07/06 01:14:52;;;;;;;;;;;;;;;;;;5152869;27;20288;-68
2023/07/06 01:17:18;;;;;;;;;;;;;;;;;;5152900;27;19918;-68
2023/07/06 01:19:44;;;;;;;;;;;;;;;;;;5152802;27;19907;-68
2023/07/06 01:22:13;;;;;;;;;;;;;;;;;;5152518;27;19912;-68
2023/07/06 01:25:34;;;;;;;;;;;;;;;;;;5112334;27;20287;-68
2023/07/06 01:28:00;;;;;;;;;;;;;;;;;;5111835;28;19916;-69
2023/07/06 01:30:26;;;;;;;;;;;;;;;;;;5110002;28;19954;-69
2023/07/06 01:32:52;;;;;;;;;;;;;;;;;;5111741;28;19915;-70
2023/07/06 01:35:18;;;;;;;;;;;;;;;;;;5111594;28;20015;-69
2023/07/06 01:37:45;;;;;;;;;;;;;;;;;;5111188;28;19915;-69
2023/07/06 01:40:57;;;;;;;;;;;;;;;;;;5112324;27;19922;-68
2023/07/06 01:43:25;;;;;;;;;;;;;;;;;;5111543;28;19916;-69
2023/07/06 01:49:27;;;;;;;;;;;;;;;;;;5112590;27;19922;-68
2023/07/06 01:53:07;;;;;;;;;;;;;;;;;;5091927;27;19916;-68
2023/07/06 01:57:07;;;;;;;;;;;;;;;;;;5091160;27;19916;-68
2023/07/06 02:02:00;;;;;;;;;;;;;;;;;;5112230;27;19919;-69
2023/07/06 02:04:26;;;;;;;;;;;;;;;;;;5111321;28;20372;-69
2023/07/06 02:07:11;;;;;;;;;;;;;;;;;;5153442;27;20014;-68
2023/07/06 02:10:02;;;;;;;;;;;;;;;;;;5092196;27;19919;-69
2023/07/06 02:12:28;;;;;;;;;;;;;;;;;;5090947;28;20006;-69
2023/07/06 02:14:54;;;;;;;;;;;;;;;;;;5091286;28;20007;-69
2023/07/06 02:17:22;;;;;;;;;;;;;;;;;;5091261;28;19931;-69
2023/07/06 02:19:49;;;;;;;;;;;;;;;;;;5090794;28;20019;-68
2023/07/06 02:25:21;;;;;;;;;;;;;;;;;;5111995;27;19922;-68
2023/07/06 02:27:47;;;;;;;;;;;;;;;;;;5111783;28;19954;-68
2023/07/06 02:35:56;;;;;;;;;;;;;;;;;;5112063;27;19916;-69
2023/07/06 02:38:22;;;;;;;;;;;;;;;;;;5111781;28;19912;-68
2023/07/06 02:40:48;;;;;;;;;;;;;;;;;;5111254;28;19961;-69
2023/07/06 02:50:28;;;;;;;;;;;;;;;;;;5112214;27;20295;-68
2023/07/06 02:54:38;;;;;;;;;;;;;;;;;;5111379;27;19923;-68
2023/07/06 02:57:04;;;;;;;;;;;;;;;;;;5111783;28;20003;-69
2023/07/06 03:03:11;;;;;;;;;;;;;;;;;;5111987;27;19916;-69
2023/07/06 03:06:59;;;;;;;;;;;;;;;;;;5091765;27;19918;-68
2023/07/06 03:10:48;;;;;;;;;;;;;;;;;;5174279;27;19915;-68
2023/07/06 03:13:14;;;;;;;;;;;;;;;;;;5173810;27;19918;-68
2023/07/06 03:15:43;;;;;;;;;;;;;;;;;;5173317;27;19907;-69
2023/07/06 03:18:53;;;;;;;;;;;;;;;;;;5112597;27;20218;-69
2023/07/06 03:21:20;;;;;;;;;;;;;;;;;;5111544;28;20007;-69
2023/07/06 03:28:40;;;;;;;;;;;;;;;;;;5111671;27;19922;-68
2023/07/06 03:31:07;;;;;;;;;;;;;;;;;;5111798;28;19912;-69
2023/07/06 03:33:33;;;;;;;;;;;;;;;;;;5111786;28;19999;-69
2023/07/06 03:36:40;;;;;;;;;;;;;;;;;;5091041;27;19916;-69
2023/07/06 03:39:06;;;;;;;;;;;;;;;;;;5091459;28;20007;-69
2023/07/06 03:41:32;;;;;;;;;;;;;;;;;;5091314;28;20357;-68
2023/07/06 03:43:58;;;;;;;;;;;;;;;;;;5090900;28;20360;-69
2023/07/06 03:46:24;;;;;;;;;;;;;;;;;;5089949;28;19912;-69
2023/07/06 03:48:50;;;;;;;;;;;;;;;;;;5089911;28;19913;-69
2023/07/06 03:51:56;;;;;;;;;;;;;;;;;;5112347;27;19916;-69
2023/07/06 03:54:22;;;;;;;;;;;;;;;;;;5111775;28;19911;-69
2023/07/06 03:58:11;;;;;;;;;;;;;;;;;;5111514;27;19922;-71
2023/07/06 04:00:38;;;;;;;;;;;;;;;;;;5111755;28;20010;-71
2023/07/06 04:03:04;;;;;;;;;;;;;;;;;;5111857;28;19912;-70
2023/07/06 04:05:32;;;;;;;;;;;;;;;;;;5111330;28;19922;-69
2023/07/06 04:09:57;;;;;;;;;;;;;;;;;;5112562;27;20402;-69
2023/07/06 04:12:23;;;;;;;;;;;;;;;;;;5111400;28;20002;-70
2023/07/06 04:15:30;;;;;;;;;;;;;;;;;;5111855;27;19916;-69
2023/07/06 04:19:36;;;;;;;;;;;;;;;;;;5112494;27;19916;-68
2023/07/06 04:22:02;;;;;;;;;;;;;;;;;;5111725;28;19912;-68
2023/07/06 04:27:22;;;;;;;;;;;;;;;;;;5111952;27;19916;-69
2023/07/06 04:30:20;;;;;;;;;;;;;;;;;;5112027;27;20297;-70
2023/07/06 04:36:34;;;;;;;;;;;;;;;;;;5111794;27;19912;-71
2023/07/06 04:39:00;;;;;;;;;;;;;;;;;;5111354;28;20459;-70
2023/07/06 04:41:48;;;;;;;;;;;;;;;;;;5112297;27;19916;-70
2023/07/06 04:47:58;;;;;;;;;;;;;;;;;;5112156;27;19916;-70
2023/07/06 04:50:24;;;;;;;;;;;;;;;;;;5111800;28;20364;-70
2023/07/06 04:56:26;;;;;;;;;;;;;;;;;;5112376;27;19911;-69
2023/07/06 04:58:53;;;;;;;;;;;;;;;;;;5112001;28;19959;-69
2023/07/06 05:06:04;;;;;;;;;;;;;;;;;;5091829;27;19917;-69
2023/07/06 05:08:31;;;;;;;;;;;;;;;;;;5090963;28;19917;-69
2023/07/06 05:14:58;;;;;;;;;;;;;;;;;;5152827;27;20022;-70
2023/07/06 05:20:31;;;;;;;;;;;;;;;;;;5112086;27;19916;-70
2023/07/06 05:22:57;;;;;;;;;;;;;;;;;;5110776;28;19912;-69
2023/07/06 05:27:45;;;;;;;;;;;;;;;;;;5111572;27;19912;-70
2023/07/06 05:30:28;;;;;;;;;;;;;;;;;;5112018;27;19916;-70
2023/07/06 05:32:54;;;;;;;;;;;;;;;;;;5111805;28;19994;-70
2023/07/06 05:35:19;;;;;;;;;;;;;;;;;;5111313;28;19947;-70
2023/07/06 05:37:45;;;;;;;;;;;;;;;;;;5111783;28;19961;-70
2023/07/06 05:41:56;;;;;;;;;;;;;;;;;;5091163;27;19927;-70
2023/07/06 05:49:31;;;;;;;;;;;;;;;;;;5132090;27;19973;-68
2023/07/06 05:51:57;;;;;;;;;;;;;;;;;;5132277;28;20322;-68
2023/07/06 05:56:23;;;;;;;;;;;;;;;;;;5111907;27;19916;-68
2023/07/06 05:58:49;;;;;;;;;;;;;;;;;;5112387;28;19934;-69
2023/07/06 06:03:08;;;;;;;;;;;;;;;;;;5152821;27;19921;-69
2023/07/06 06:06:33;;;;;;;;;;;;;;;;;;5153113;27;20294;-69
2023/07/06 06:09:42;;;;;;;;;;;;;;;;;;5153051;27;20006;-69
2023/07/06 06:12:10;;;;;;;;;;;;;;;;;;5152554;27;19919;-69
2023/07/06 06:14:37;;;;;;;;;;;;;;;;;;5134372;27;20314;-69
2023/07/06 06:18:30;;;;;;;;;;;;;;;;;;5091169;27;19922;-69
2023/07/06 06:21:15;;;;;;;;;;;;;;;;;;5111693;27;20373;-69
2023/07/06 06:23:42;;;;;;;;;;;;;;;;;;5112169;28;20018;-67
2023/07/06 06:26:08;;;;;;;;;;;;;;;;;;5111089;28;19908;-68
2023/07/06 06:30:35;;;;;;;;;;;;;;;;;;5132376;27;20348;-68
2023/07/06 06:34:01;;;;;;;;;;;;;;;;;;5109656;27;20372;-69
2023/07/06 06:41:18;;;;;;;;;;;;;;;;;;5089308;28;19916;-67
2023/07/06 06:43:44;;;;;;;;;;;;;;;;;;5089320;28;20388;-70
2023/07/06 06:46:10;;;;;;;;;;;;;;;;;;5088091;28;19954;-70
2023/07/06 06:48:36;;;;;;;;;;;;;;;;;;5089004;28;19918;-70
2023/07/06 06:53:16;;;;;;;;;;;;;;;;;;5109784;27;20368;-70
2023/07/06 06:55:42;;;;;;;;;;;;;;;;;;5110876;28;20380;-69
2023/07/06 06:58:08;;;;;;;;;;;;;;;;;;5121336;28;19912;-68
2023/07/06 07:02:52;;;;;;;;;;;;;;;;;;5120232;27;19920;-69
2023/07/06 07:07:31;;;;;;;;;;;;;;;;;;5104503;27;20745;-68
2023/07/06 07:09:58;;;;;;;;;;;;;;;;;;5109732;28;19935;-68
2023/07/06 07:12:25;;;;;;;;;;;;;;;;;;5109591;28;19915;-69
2023/07/06 07:16:34;;;;;;;;;;;;;;;;;;5089128;27;19919;-68
2023/07/06 07:24:03;;;;;;;;;;;;;;;;;;5091309;28;19923;-68
2023/07/06 07:26:29;;;;;;;;;;;;;;;;;;5091301;28;19912;-69
2023/07/06 07:30:26;;;;;;;;;;;;;;;;;;5091721;27;19938;-69
2023/07/06 07:34:55;;;;;;;;;;;;;;;;;;5152041;27;20366;-66
2023/07/06 07:37:21;;;;;;;;;;;;;;;;;;5111370;28;19912;-71
2023/07/06 07:44:37;;;;;;;;;;;;;;;;;;5056192;27;2098711;-74
2023/07/06 07:48:33;;;;;;;;;;;;;;;;;;5111564;27;20713;-75
2023/07/06 07:51:01;;;;;;;;;;;;;;;;;;5111908;28;19912;-74
2023/07/06 07:58:17;;;;;;;;;;;;;;;;;;5153012;27;19915;-73
2023/07/06 08:01:00;;;;;;;;;;;;;;;;;;5053140;27;2763367;-73
2023/07/06 08:03:27;;;;;;;;;;;;;;;;;;5152429;27;19919;-75
2023/07/06 08:05:53;;;;;;;;;;;;;;;;;;5152744;27;19947;-72
2023/07/06 08:08:19;;;;;;;;;;;;;;;;;;5152497;27;19907;-75
2023/07/06 08:12:27;;;;;;;;;;;;;;;;;;5143155;27;20367;-73
2023/07/06 08:18:51;;;;;;;;;;;;;;;;;;5109585;27;19916;-73
2023/07/06 08:22:23;;;;;;;;;;;;;;;;;;5151665;27;19918;-73
2023/07/06 08:24:49;;;;;;;;;;;;;;;;;;5145925;27;19915;-72
2023/07/06 08:27:15;;;;;;;;;;;;;;;;;;5150553;27;20001;-74
2023/07/06 08:31:32;;;;;;;;;;;;;;;;;;5081166;28;20323;-68
2023/07/06 08:34:00;;;;;;;;;;;;;;;;;;5050985;28;19913;-69
2023/07/06 08:36:27;;;;;;;;;;;;;;;;;;5050670;28;19915;-70
2023/07/06 08:38:54;;;;;;;;;;;;;;;;;;5050240;28;20000;-69
2023/07/06 08:41:20;;;;;;;;;;;;;;;;;;5050339;28;19912;-69
2023/07/06 08:43:46;;;;;;;;;;;;;;;;;;5050427;28;19913;-70
2023/07/06 08:46:12;;;;;;;;;;;;;;;;;;5049918;28;19956;-68
2023/07/06 08:48:38;;;;;;;;;;;;;;;;;;5049481;28;20369;-67
2023/07/06 08:51:04;;;;;;;;;;;;;;;;;;5050100;28;20421;-67
2023/07/06 08:53:30;;;;;;;;;;;;;;;;;;5050233;28;19913;-67
2023/07/06 08:56:38;;;;;;;;;;;;;;;;;;5152584;27;20010;-67
2023/07/06 08:59:04;;;;;;;;;;;;;;;;;;5133102;27;19946;-66
2023/07/06 09:01:31;;;;;;;;;;;;;;;;;;5151698;27;19911;-69
2023/07/06 09:03:57;;;;;;;;;;;;;;;;;;5152253;27;19907;-68
2023/07/06 09:06:23;;;;;;;;;;;;;;;;;;5151641;27;19918;-68
2023/07/06 09:08:50;;;;;;;;;;;;;;;;;;5150924;27;19918;-70
2023/07/06 09:11:16;;;;;;;;;;;;;;;;;;5128421;27;20539;-68
2023/07/06 09:13:42;;;;;;;;;;;;;;;;;;5108544;28;19968;-68
2023/07/06 09:16:19;;;;;;;;;;;;;;;;;;5128582;27;19955;-68
2023/07/06 09:18:45;;;;;;;;;;;;;;;;;;5135663;27;20023;-68
2023/07/06 09:21:12;;;;;;;;;;;;;;;;;;5143293;27;19994;-68
2023/07/06 09:23:38;;;;;;;;;;;;;;;;;;5136923;27;20312;-68
2023/07/06 09:26:03;;;;;;;;;;;;;;;;;;5110801;28;19916;-68
2023/07/06 09:28:31;;;;;;;;;;;;;;;;;;5109210;28;19907;-69
2023/07/06 09:30:58;;;;;;;;;;;;;;;;;;5130348;27;19908;-69
2023/07/06 09:33:24;;;;;;;;;;;;;;;;;;5130561;28;20480;-68
2023/07/06 09:37:11;;;;;;;;;;;;;;;;;;5111036;27;19920;-68
2023/07/06 09:39:37;;;;;;;;;;;;;;;;;;5105757;28;19929;-67
2023/07/06 09:42:03;;;;;;;;;;;;;;;;;;5098250;28;19959;-67
2023/07/06 09:44:29;;;;;;;;;;;;;;;;;;5094427;28;20288;-68
2023/07/06 09:46:55;;;;;;;;;;;;;;;;;;5094707;28;19958;-68
2023/07/06 09:49:21;;;;;;;;;;;;;;;;;;5090685;28;20311;-68
2023/07/06 09:51:50;;;;;;;;;;;;;;;;;;5089541;28;19990;-69
2023/07/06 09:54:17;;;;;;;;;;;;;;;;;;5090878;28;20253;-68
2023/07/06 09:56:43;;;;;;;;;;;;;;;;;;5090338;28;19946;-68
2023/07/06 09:59:09;;;;;;;;;;;;;;;;;;5090876;28;19915;-67
2023/07/06 10:01:35;;;;;;;;;;;;;;;;;;5090650;28;19916;-67
2023/07/06 10:04:01;;;;;;;;;;;;;;;;;;5090354;28;20045;-68
2023/07/06 10:06:27;;;;;;;;;;;;;;;;;;5089929;28;20288;-69
2023/07/06 10:08:53;;;;;;;;;;;;;;;;;;5104399;28;19912;-69
2023/07/06 10:11:22;;;;;;;;;;;;;;;;;;5105790;28;20003;-69
2023/07/06 10:13:49;;;;;;;;;;;;;;;;;;5089147;28;19952;-69
2023/07/06 10:16:15;;;;;;;;;;;;;;;;;;5089930;28;19924;-68
2023/07/06 10:18:41;;;;;;;;;;;;;;;;;;5097225;28;19916;-69
2023/07/06 10:21:07;;;;;;;;;;;;;;;;;;5096325;28;19912;-69
2023/07/06 10:23:34;;;;;;;;;;;;;;;;;;5090940;28;20276;-68
2023/07/06 10:26:00;;;;;;;;;;;;;;;;;;5107131;28;20390;-68
2023/07/06 10:28:26;;;;;;;;;;;;;;;;;;5110382;28;19912;-69
2023/07/06 10:30:52;;;;;;;;;;;;;;;;;;5102631;28;20031;-69
2023/07/06 10:33:18;;;;;;;;;;;;;;;;;;5089972;28;20004;-69
2023/07/06 10:35:45;;;;;;;;;;;;;;;;;;5100662;28;19927;-69
2023/07/06 10:38:11;;;;;;;;;;;;;;;;;;5088975;28;20417;-68
2023/07/06 10:40:37;;;;;;;;;;;;;;;;;;5101196;28;19909;-67
2023/07/06 10:43:05;;;;;;;;;;;;;;;;;;5108506;28;19953;-69
2023/07/06 10:45:32;;;;;;;;;;;;;;;;;;5102578;28;19912;-69
2023/07/06 10:47:58;;;;;;;;;;;;;;;;;;5087986;28;19919;-69
2023/07/06 10:50:25;;;;;;;;;;;;;;;;;;5077852;28;19916;-70
2023/07/06 10:52:51;;;;;;;;;;;;;;;;;;5076080;28;19974;-69
2023/07/06 10:55:18;;;;;;;;;;;;;;;;;;5076265;28;20380;-69
2023/07/06 10:57:44;;;;;;;;;;;;;;;;;;5076220;28;19936;-69
2023/07/06 11:00:10;;;;;;;;;;;;;;;;;;5075719;28;20361;-68
2023/07/06 11:02:38;;;;;;;;;;;;;;;;;;5077067;28;19952;-68
2023/07/06 11:05:04;;;;;;;;;;;;;;;;;;5076065;28;20317;-67
2023/07/06 11:07:30;;;;;;;;;;;;;;;;;;5074341;28;20011;-69
2023/07/06 11:09:56;;;;;;;;;;;;;;;;;;5075455;28;19920;-68
2023/07/06 11:12:24;;;;;;;;;;;;;;;;;;5083037;28;19912;-68
2023/07/06 11:14:50;;;;;;;;;;;;;;;;;;5089198;28;20434;-68
2023/07/06 11:17:16;;;;;;;;;;;;;;;;;;5094770;28;19916;-70
2023/07/06 11:19:42;;;;;;;;;;;;;;;;;;5079196;28;20003;-68
2023/07/06 11:22:09;;;;;;;;;;;;;;;;;;5080965;28;20284;-68
2023/07/06 11:24:35;;;;;;;;;;;;;;;;;;5076812;28;20357;-69
2023/07/06 11:27:01;;;;;;;;;;;;;;;;;;5075588;28;19969;-67
2023/07/06 11:29:30;;;;;;;;;;;;;;;;;;5075662;28;19908;-68
2023/07/06 11:31:58;;;;;;;;;;;;;;;;;;5078667;28;20050;-68
2023/07/06 11:34:24;;;;;;;;;;;;;;;;;;5085038;28;19931;-68
2023/07/06 11:36:52;;;;;;;;;;;;;;;;;;5075245;28;20376;-68
2023/07/06 11:39:18;;;;;;;;;;;;;;;;;;5074120;28;19915;-69
2023/07/06 11:41:44;;;;;;;;;;;;;;;;;;5074963;28;20254;-67
2023/07/06 11:44:10;;;;;;;;;;;;;;;;;;5074559;28;19966;-68
2023/07/06 11:46:36;;;;;;;;;;;;;;;;;;5075194;28;19913;-69
2023/07/06 11:49:02;;;;;;;;;;;;;;;;;;5077319;28;19918;-68
2023/07/06 11:51:28;;;;;;;;;;;;;;;;;;5077884;28;19919;-67
2023/07/06 11:53:56;;;;;;;;;;;;;;;;;;5080781;28;19912;-68
2023/07/06 11:59:15;;;;;;;;;;;;;;;;;;5074019;28;19915;-68
2023/07/06 12:01:57;;;;;;;;;;;;;;;;;;5084428;28;19912;-68
2023/07/06 12:04:23;;;;;;;;;;;;;;;;;;5079215;28;19912;-68
2023/07/06 12:06:50;;;;;;;;;;;;;;;;;;5091860;28;19930;-68
2023/07/06 12:09:17;;;;;;;;;;;;;;;;;;5074530;28;19912;-68
2023/07/06 12:11:43;;;;;;;;;;;;;;;;;;5087848;28;19912;-69
2023/07/06 12:14:08;;;;;;;;;;;;;;;;;;5086145;28;19961;-70
2023/07/06 12:16:35;;;;;;;;;;;;;;;;;;5093975;28;20001;-70
2023/07/06 12:19:03;;;;;;;;;;;;;;;;;;5094816;28;19908;-70
2023/07/06 12:21:29;;;;;;;;;;;;;;;;;;5095089;28;19915;-70
2023/07/06 12:23:55;;;;;;;;;;;;;;;;;;5093372;28;19908;-71
2023/07/06 12:26:21;;;;;;;;;;;;;;;;;;5094990;28;19914;-70
2023/07/06 12:28:47;;;;;;;;;;;;;;;;;;5094563;28;19908;-68
2023/07/06 12:31:14;;;;;;;;;;;;;;;;;;5094564;28;19908;-72
2023/07/06 12:33:40;;;;;;;;;;;;;;;;;;5094782;28;19969;-71
2023/07/06 12:36:06;;;;;;;;;;;;;;;;;;5094547;28;19920;-70
2023/07/06 12:38:35;;;;;;;;;;;;;;;;;;5094388;28;20002;-70
2023/07/06 12:41:01;;;;;;;;;;;;;;;;;;5094678;28;19919;-70
2023/07/06 12:43:27;;;;;;;;;;;;;;;;;;5093426;28;19914;-69
2023/07/06 12:45:53;;;;;;;;;;;;;;;;;;5094310;28;20006;-70
2023/07/06 12:48:19;;;;;;;;;;;;;;;;;;5093342;28;19913;-71
2023/07/06 12:50:47;;;;;;;;;;;;;;;;;;5094177;28;19908;-70
2023/07/06 12:53:13;;;;;;;;;;;;;;;;;;5094416;28;19908;-70
2023/07/06 12:55:39;;;;;;;;;;;;;;;;;;5094431;28;19935;-68
2023/07/06 12:58:05;;;;;;;;;;;;;;;;;;5092788;28;20360;-69
2023/07/06 13:00:31;;;;;;;;;;;;;;;;;;5094299;28;20429;-69
2023/07/06 13:02:58;;;;;;;;;;;;;;;;;;5094560;28;20005;-70
2023/07/06 13:05:24;;;;;;;;;;;;;;;;;;5093926;28;19930;-70
2023/07/06 13:07:50;;;;;;;;;;;;;;;;;;5094337;28;19908;-69
2023/07/06 13:10:16;;;;;;;;;;;;;;;;;;5094016;28;19908;-70
2023/07/06 13:12:42;;;;;;;;;;;;;;;;;;5093846;28;20299;-70
2023/07/06 13:15:09;;;;;;;;;;;;;;;;;;5094135;28;20037;-70
2023/07/06 13:17:35;;;;;;;;;;;;;;;;;;5094222;28;19967;-70
2023/07/06 13:20:04;;;;;;;;;;;;;;;;;;5093713;28;19908;-70
2023/07/06 13:22:30;;;;;;;;;;;;;;;;;;5093997;28;19915;-69
2023/07/06 13:24:56;;;;;;;;;;;;;;;;;;5093566;28;19909;-70
2023/07/06 13:27:23;;;;;;;;;;;;;;;;;;5093764;28;19953;-69
2023/07/06 13:29:50;;;;;;;;;;;;;;;;;;5092703;28;19908;-70
2023/07/06 13:32:16;;;;;;;;;;;;;;;;;;5093981;28;19908;-69
2023/07/06 13:34:42;;;;;;;;;;;;;;;;;;5093677;28;20374;-70
2023/07/06 13:37:11;;;;;;;;;;;;;;;;;;5092433;28;20388;-70
2023/07/06 13:39:37;;;;;;;;;;;;;;;;;;5093933;28;19915;-70
2023/07/06 13:42:03;;;;;;;;;;;;;;;;;;5093483;28;20272;-70
2023/07/06 13:44:29;;;;;;;;;;;;;;;;;;5093735;28;20321;-71
2023/07/06 13:46:55;;;;;;;;;;;;;;;;;;5093593;28;19965;-70
2023/07/06 13:49:21;;;;;;;;;;;;;;;;;;5093841;28;19911;-70
2023/07/06 13:51:47;;;;;;;;;;;;;;;;;;5093791;28;19930;-70
2023/07/06 13:54:13;;;;;;;;;;;;;;;;;;5093383;28;19931;-70
2023/07/06 13:56:41;;;;;;;;;;;;;;;;;;5094207;28;20348;-70
2023/07/06 13:59:07;;;;;;;;;;;;;;;;;;5093649;28;19994;-69
2023/07/06 14:01:33;;;;;;;;;;;;;;;;;;5093338;28;19959;-69
2023/07/06 14:04:01;;;;;;;;;;;;;;;;;;5093715;28;19908;-68
2023/07/06 14:06:27;;;;;;;;;;;;;;;;;;5093609;28;19908;-68
2023/07/06 14:08:53;;;;;;;;;;;;;;;;;;5092011;28;19916;-71
2023/07/06 14:11:19;;;;;;;;;;;;;;;;;;5093678;28;19908;-68
2023/07/06 14:13:45;;;;;;;;;;;;;;;;;;5093622;28;19977;-69
2023/07/06 14:16:11;;;;;;;;;;;;;;;;;;5091676;28;19916;-69
2023/07/06 14:18:37;;;;;;;;;;;;;;;;;;5093472;28;19919;-69
2023/07/06 14:21:05;;;;;;;;;;;;;;;;;;5092276;28;19914;-70
2023/07/06 14:23:31;;;;;;;;;;;;;;;;;;5096182;28;19912;-69
2023/07/06 14:25:57;;;;;;;;;;;;;;;;;;5097309;28;19915;-70
2023/07/06 14:28:26;;;;;;;;;;;;;;;;;;5097281;28;19912;-70
2023/07/06 14:30:52;;;;;;;;;;;;;;;;;;5096910;28;19962;-69
2023/07/06 14:33:18;;;;;;;;;;;;;;;;;;5097320;28;19915;-71
2023/07/06 14:35:44;;;;;;;;;;;;;;;;;;5096919;28;19920;-71
2023/07/06 14:38:10;;;;;;;;;;;;;;;;;;5096818;28;19908;-70
2023/07/06 14:40:36;;;;;;;;;;;;;;;;;;5097073;28;20360;-70
2023/07/06 14:43:03;;;;;;;;;;;;;;;;;;5097024;28;19915;-71
2023/07/06 14:45:29;;;;;;;;;;;;;;;;;;5095237;28;19909;-71
2023/07/06 14:47:55;;;;;;;;;;;;;;;;;;5096926;28;19908;-71
2023/07/06 15:04:03;;;;;;;;;;;;;;;;;;5091298;27;19918;-67
2023/07/06 15:06:29;;;;;;;;;;;;;;;;;;5089612;28;19916;-67
2023/07/06 15:08:55;;;;;;;;;;;;;;;;;;5091720;28;19962;-67
2023/07/06 15:11:21;;;;;;;;;;;;;;;;;;5090941;28;19908;-67
2023/07/06 15:13:47;;;;;;;;;;;;;;;;;;5089335;28;19908;-68
2023/07/06 15:16:13;;;;;;;;;;;;;;;;;;5089706;28;19917;-67
2023/07/06 15:18:39;;;;;;;;;;;;;;;;;;5090972;28;19908;-68
2023/07/06 15:21:05;;;;;;;;;;;;;;;;;;5090523;28;19995;-68
2023/07/06 15:23:31;;;;;;;;;;;;;;;;;;5089779;28;19913;-68
2023/07/06 15:25:57;;;;;;;;;;;;;;;;;;5091027;28;20357;-68
2023/07/06 15:28:23;;;;;;;;;;;;;;;;;;5090372;28;19931;-68
2023/07/06 15:30:49;;;;;;;;;;;;;;;;;;5090743;28;19912;-66
2023/07/06 15:33:15;;;;;;;;;;;;;;;;;;5089360;28;19963;-67
2023/07/06 15:35:41;;;;;;;;;;;;;;;;;;5088945;28;19908;-66
2023/07/06 15:38:07;;;;;;;;;;;;;;;;;;5089125;28;19948;-66
2023/07/06 15:40:33;;;;;;;;;;;;;;;;;;5088420;28;19908;-66
2023/07/06 15:42:59;;;;;;;;;;;;;;;;;;5090222;28;20380;-66
2023/07/06 15:45:25;;;;;;;;;;;;;;;;;;5090382;28;19908;-66
2023/07/06 15:47:51;;;;;;;;;;;;;;;;;;5089067;28;19952;-66
2023/07/06 15:50:17;;;;;;;;;;;;;;;;;;5089925;28;19914;-66
2023/07/06 15:52:42;;;;;;;;;;;;;;;;;;5090141;28;19916;-66
2023/07/06 15:55:08;;;;;;;;;;;;;;;;;;5088851;28;19961;-67
2023/07/06 15:57:34;;;;;;;;;;;;;;;;;;5089936;28;19909;-68
2023/07/06 16:00:00;;;;;;;;;;;;;;;;;;5088853;28;19915;-67
2023/07/06 16:02:26;;;;;;;;;;;;;;;;;;5089531;28;19920;-68
2023/07/06 16:04:52;;;;;;;;;;;;;;;;;;5075908;28;19912;-67
2023/07/06 16:07:18;;;;;;;;;;;;;;;;;;5075187;28;19916;-66
2023/07/06 16:09:44;;;;;;;;;;;;;;;;;;5074864;28;19908;-66
2023/07/06 16:12:10;;;;;;;;;;;;;;;;;;5076402;28;19917;-66
2023/07/06 16:14:36;;;;;;;;;;;;;;;;;;5076386;28;20259;-66
2023/07/06 16:17:02;;;;;;;;;;;;;;;;;;5076016;28;20357;-68
2023/07/06 16:19:28;;;;;;;;;;;;;;;;;;5076292;28;19940;-68
2023/07/06 16:21:54;;;;;;;;;;;;;;;;;;5074974;28;20343;-67
2023/07/06 16:24:20;;;;;;;;;;;;;;;;;;5075908;28;20251;-67
2023/07/06 16:26:46;;;;;;;;;;;;;;;;;;5076237;28;20283;-67
2023/07/06 16:29:13;;;;;;;;;;;;;;;;;;5076084;28;19913;-67
2023/07/06 16:31:39;;;;;;;;;;;;;;;;;;5075573;28;19924;-67
2023/07/06 16:34:05;;;;;;;;;;;;;;;;;;5074783;28;20018;-67
2023/07/06 16:36:31;;;;;;;;;;;;;;;;;;5074780;28;19909;-68
2023/07/06 16:38:57;;;;;;;;;;;;;;;;;;5075554;28;19908;-67
2023/07/06 16:41:23;;;;;;;;;;;;;;;;;;5075994;28;19909;-68
2023/07/06 16:43:49;;;;;;;;;;;;;;;;;;5075870;28;19952;-68
2023/07/06 16:46:15;;;;;;;;;;;;;;;;;;5075588;28;19916;-68
2023/07/06 16:48:41;;;;;;;;;;;;;;;;;;5075811;28;19915;-68
2023/07/06 16:51:07;;;;;;;;;;;;;;;;;;5074442;28;19908;-68
2023/07/06 16:53:33;;;;;;;;;;;;;;;;;;5075338;28;19917;-68
2023/07/06 16:55:59;;;;;;;;;;;;;;;;;;5074332;28;19962;-68
2023/07/06 16:58:25;;;;;;;;;;;;;;;;;;5074243;28;19908;-68
2023/07/06 17:00:51;;;;;;;;;;;;;;;;;;5073886;28;19977;-68
2023/07/06 17:03:17;;;;;;;;;;;;;;;;;;5073816;28;19921;-68
2023/07/06 17:05:42;;;;;;;;;;;;;;;;;;5075075;28;19915;-68
2023/07/06 17:08:08;;;;;;;;;;;;;;;;;;5074021;28;19912;-68
2023/07/06 17:10:34;;;;;;;;;;;;;;;;;;5073891;28;19916;-68
2023/07/06 17:13:00;;;;;;;;;;;;;;;;;;5073508;28;19917;-68
2023/07/06 17:15:26;;;;;;;;;;;;;;;;;;5074186;28;20412;-68
2023/07/06 17:17:55;;;;;;;;;;;;;;;;;;5073621;28;20404;-68
2023/07/06 17:20:21;;;;;;;;;;;;;;;;;;5074465;28;20274;-68
2023/07/06 17:22:47;;;;;;;;;;;;;;;;;;5074969;28;19908;-68
2023/07/06 17:25:13;;;;;;;;;;;;;;;;;;5073554;28;19915;-68
2023/07/06 17:27:39;;;;;;;;;;;;;;;;;;5074491;28;19915;-67
2023/07/06 17:30:06;;;;;;;;;;;;;;;;;;5074898;28;19962;-67
2023/07/06 17:32:32;;;;;;;;;;;;;;;;;;5073390;28;19959;-67
2023/07/06 17:34:58;;;;;;;;;;;;;;;;;;5074375;28;19956;-68
2023/07/06 17:37:24;;;;;;;;;;;;;;;;;;5074618;28;19908;-68
2023/07/06 17:39:50;;;;;;;;;;;;;;;;;;5073317;28;19909;-68
2023/07/06 17:42:16;;;;;;;;;;;;;;;;;;5074262;28;19934;-68
2023/07/06 17:44:44;;;;;;;;;;;;;;;;;;5074712;28;19912;-68
2023/07/06 17:47:09;;;;;;;;;;;;;;;;;;5074651;28;19930;-68
2023/07/06 17:49:35;;;;;;;;;;;;;;;;;;5072850;28;20366;-68
2023/07/06 17:52:01;;;;;;;;;;;;;;;;;;5074389;28;19960;-68
2023/07/06 17:54:27;;;;;;;;;;;;;;;;;;5073233;28;20297;-68
2023/07/06 17:56:53;;;;;;;;;;;;;;;;;;5074054;28;19909;-68
2023/07/06 17:59:19;;;;;;;;;;;;;;;;;;5074333;28;19928;-69
2023/07/06 18:01:45;;;;;;;;;;;;;;;;;;5072801;28;19944;-68
2023/07/06 18:04:11;;;;;;;;;;;;;;;;;;5073890;28;19935;-68
2023/07/06 18:06:37;;;;;;;;;;;;;;;;;;5074293;28;19952;-68
2023/07/06 18:09:03;;;;;;;;;;;;;;;;;;5073810;28;19962;-67
2023/07/06 18:11:29;;;;;;;;;;;;;;;;;;5074001;28;19908;-68
2023/07/06 18:13:55;;;;;;;;;;;;;;;;;;5074017;28;19999;-68
2023/07/06 18:16:21;;;;;;;;;;;;;;;;;;5072403;28;20592;-68
2023/07/06 18:18:47;;;;;;;;;;;;;;;;;;5072778;28;20282;-68
2023/07/06 18:21:13;;;;;;;;;;;;;;;;;;5073979;28;20328;-67
2023/07/06 18:23:41;;;;;;;;;;;;;;;;;;5072296;28;20293;-68
2023/07/06 18:26:07;;;;;;;;;;;;;;;;;;5073706;28;19939;-68
2023/07/06 18:28:33;;;;;;;;;;;;;;;;;;5072599;28;19931;-68
2023/07/06 18:30:59;;;;;;;;;;;;;;;;;;5072330;28;19915;-68
2023/07/06 18:33:25;;;;;;;;;;;;;;;;;;5072408;28;20378;-67
2023/07/06 18:35:51;;;;;;;;;;;;;;;;;;5073733;28;19912;-67
2023/07/06 18:38:17;;;;;;;;;;;;;;;;;;5072097;28;19916;-67
2023/07/06 18:40:42;;;;;;;;;;;;;;;;;;5072461;28;19919;-68
2023/07/06 18:43:08;;;;;;;;;;;;;;;;;;5073692;28;19951;-68
2023/07/06 18:45:34;;;;;;;;;;;;;;;;;;5073310;28;19909;-68
2023/07/06 18:48:00;;;;;;;;;;;;;;;;;;5073807;28;19923;-68
2023/07/06 18:50:26;;;;;;;;;;;;;;;;;;5072362;28;19909;-69
2023/07/06 18:52:52;;;;;;;;;;;;;;;;;;5073208;28;20383;-68
2023/07/06 18:55:19;;;;;;;;;;;;;;;;;;5072557;28;19908;-68
2023/07/06 18:58:37;;;;;;;;;;;;;;;;;;5111856;27;19922;-68
2023/07/06 19:01:03;;;;;;;;;;;;;;;;;;5110441;28;19911;-68
2023/07/06 19:05:43;;;;;;;;;;;;;;;;;;5131785;27;19911;-67
2023/07/06 19:08:09;;;;;;;;;;;;;;;;;;5132317;28;19911;-67
2023/07/06 19:10:35;;;;;;;;;;;;;;;;;;5113855;28;20336;-68
2023/07/06 19:13:01;;;;;;;;;;;;;;;;;;5131790;28;19931;-67
2023/07/06 19:18:05;;;;;;;;;;;;;;;;;;5152890;27;19912;-67
2023/07/06 19:21:32;;;;;;;;;;;;;;;;;;5090980;27;19916;-68
2023/07/06 19:23:57;;;;;;;;;;;;;;;;;;5090272;28;19917;-69
2023/07/06 19:26:24;;;;;;;;;;;;;;;;;;5090916;28;20322;-67
2023/07/06 19:28:50;;;;;;;;;;;;;;;;;;5090119;28;20284;-67
2023/07/06 19:32:53;;;;;;;;;;;;;;;;;;5174043;27;19911;-67
2023/07/06 19:35:19;;;;;;;;;;;;;;;;;;5173212;27;19915;-68